createdAt,value
2023-01-10T00:01:56.740Z,8.63
2023-01-10T00:04:26.554Z,10.68
2023-01-10T00:06:53.862Z,10.00
2023-01-10T00:09:21.021Z,7.07
2023-01-10T00:12:06.829Z,9.88
2023-01-10T00:14:35.232Z,7.35
2023-01-10T00:17:05.833Z,9.43
2023-01-10T00:19:33.007Z,14.45
2023-01-10T00:22:08.094Z,8.23
2023-01-10T00:24:35.316Z,5.28
2023-01-10T00:27:03.090Z,6.30
2023-01-10T00:29:35.399Z,7.93
2023-01-10T00:32:02.556Z,5.13
2023-01-10T00:34:31.129Z,8.73
2023-01-10T00:36:58.291Z,6.57
2023-01-10T00:39:27.585Z,8.30
2023-01-10T00:42:13.324Z,10.30
2023-01-10T00:44:40.468Z,13.73
2023-01-10T00:47:07.777Z,8.43
2023-01-10T00:49:35.024Z,9.50
2023-01-10T00:52:02.406Z,9.23
2023-01-10T00:54:29.573Z,12.50
2023-01-10T00:56:56.962Z,6.32
2023-01-10T00:59:24.646Z,8.95
2023-01-10T01:01:52.722Z,6.30
2023-01-10T01:04:20.191Z,9.10
2023-01-10T01:06:48.894Z,6.95
2023-01-10T01:09:16.667Z,6.07
2023-01-10T01:11:43.886Z,11.68
2023-01-10T01:14:11.241Z,5.70
2023-01-10T01:16:38.420Z,5.90
2023-01-10T01:19:05.666Z,5.03
2023-01-10T01:21:32.800Z,8.48
2023-01-10T01:23:59.966Z,6.63
2023-01-10T01:26:27.438Z,8.93
2023-01-10T01:28:54.990Z,10.32
2023-01-10T01:31:22.211Z,10.32
2023-01-10T01:33:49.559Z,5.72
2023-01-10T01:36:16.731Z,8.88
2023-01-10T01:38:43.912Z,5.07
2023-01-10T01:41:30.119Z,6.68
2023-01-10T01:44:00.147Z,9.40
2023-01-10T01:46:27.597Z,10.00
2023-01-10T01:48:54.799Z,8.23
2023-01-10T01:51:26.353Z,7.60
2023-01-10T01:53:56.409Z,4.63
2023-01-10T01:56:25.607Z,6.30
2023-01-10T01:58:59.146Z,5.10
2023-01-10T02:01:27.341Z,6.90
2023-01-10T02:03:56.163Z,4.45
2023-01-10T02:06:24.514Z,5.75
2023-01-10T02:08:56.245Z,5.50
2023-01-10T02:11:23.440Z,4.72
2023-01-10T02:13:51.133Z,6.75
2023-01-10T02:16:18.401Z,9.18
2023-01-10T02:18:45.619Z,5.60
2023-01-10T02:21:22.030Z,9.10
2023-01-10T02:24:21.228Z,8.82
2023-01-10T02:27:05.263Z,8.73
2023-01-10T02:29:51.445Z,9.00
2023-01-10T02:32:45.906Z,9.25
2023-01-10T02:35:23.922Z,10.73
2023-01-10T02:38:10.027Z,7.55
2023-01-10T02:40:44.473Z,9.60
2023-01-10T02:43:16.204Z,11.23
2023-01-10T02:45:48.583Z,8.50
2023-01-10T02:48:17.610Z,4.85
2023-01-10T02:50:44.938Z,6.03
2023-01-10T02:53:17.423Z,6.47
2023-01-10T02:55:56.954Z,7.63
2023-01-10T02:58:35.294Z,6.40
2023-01-10T03:01:27.599Z,9.48
2023-01-10T03:04:15.654Z,9.27
2023-01-10T03:06:53.523Z,14.55
2023-01-10T03:09:35.273Z,10.93
2023-01-10T03:12:05.888Z,12.93
2023-01-10T03:14:33.939Z,11.07
2023-01-10T03:17:04.690Z,13.98
2023-01-10T03:19:38.265Z,13.20
2023-01-10T03:24:34.714Z,12.90
2023-01-10T03:27:07.896Z,13.68
2023-01-10T03:29:40.074Z,9.32
2023-01-10T03:32:08.702Z,17.50
2023-01-10T03:34:36.822Z,10.45
2023-01-10T03:37:08.715Z,13.60
2023-01-10T03:39:45.559Z,15.13
2023-01-10T03:42:16.614Z,8.02
2023-01-10T03:44:54.881Z,18.02
2023-01-10T03:47:37.218Z,12.45
2023-01-10T03:50:07.882Z,11.43
2023-01-10T03:52:35.815Z,12.43
2023-01-10T03:55:03.567Z,11.45
2023-01-10T03:57:30.863Z,7.38
2023-01-10T03:59:59.060Z,7.35
2023-01-10T04:02:28.061Z,7.45
2023-01-10T04:04:55.267Z,7.45
2023-01-10T04:07:25.127Z,10.38
2023-01-10T04:09:52.377Z,14.75
2023-01-10T04:12:19.600Z,7.78
2023-01-10T04:14:47.247Z,9.68
2023-01-10T04:17:15.471Z,12.38
2023-01-10T04:19:42.652Z,7.95
2023-01-10T04:22:10.158Z,10.82
2023-01-10T04:24:37.503Z,11.55
2023-01-10T04:27:04.830Z,11.40
2023-01-10T04:29:32.133Z,8.90
2023-01-10T04:31:59.287Z,8.55
2023-01-10T04:34:26.459Z,8.10
2023-01-10T04:36:53.671Z,8.85
2023-01-10T04:39:20.871Z,9.48
2023-01-10T04:41:50.694Z,6.07
2023-01-10T04:44:17.822Z,7.90
2023-01-10T04:46:45.578Z,7.55
2023-01-10T04:49:13.014Z,6.50
2023-01-10T04:51:40.677Z,7.95
2023-01-10T04:54:07.831Z,10.77
2023-01-10T04:56:35.036Z,7.93
2023-01-10T04:59:02.249Z,6.72
2023-01-10T05:01:29.533Z,10.32
2023-01-10T05:03:57.343Z,11.52
2023-01-10T05:06:25.522Z,9.95
2023-01-10T05:08:52.734Z,6.45
2023-01-10T05:11:19.907Z,7.72
2023-01-10T05:13:48.155Z,7.88
2023-01-10T05:16:16.120Z,7.55
2023-01-10T05:18:43.330Z,13.65
2023-01-10T05:21:12.769Z,5.90
2023-01-10T05:23:40.508Z,6.75
2023-01-10T05:26:09.182Z,4.28
2023-01-10T05:28:36.525Z,3.70
2023-01-10T05:31:03.781Z,5.50
2023-01-10T05:33:30.937Z,8.73
2023-01-10T05:35:58.113Z,6.28
2023-01-10T05:38:25.291Z,4.82
2023-01-10T05:40:56.392Z,10.52
2023-01-10T05:43:24.084Z,6.63
2023-01-10T05:45:51.695Z,10.02
2023-01-10T05:48:19.289Z,7.53
2023-01-10T05:50:46.526Z,5.60
2023-01-10T05:53:13.665Z,5.63
2023-01-10T05:55:40.973Z,8.32
2023-01-10T05:58:11.142Z,6.13
2023-01-10T06:00:39.913Z,7.13
2023-01-10T06:03:07.312Z,8.63
2023-01-10T06:05:34.566Z,7.10
2023-01-10T06:08:01.703Z,6.55
2023-01-10T06:10:28.933Z,6.43
2023-01-10T06:12:56.088Z,4.95
2023-01-10T06:15:23.281Z,5.05
2023-01-10T06:17:50.543Z,5.65
2023-01-10T06:20:17.971Z,4.90
2023-01-10T06:22:45.074Z,7.60
2023-01-10T06:25:12.732Z,10.35
2023-01-10T06:27:41.390Z,13.18
2023-01-10T06:30:09.436Z,5.55
2023-01-10T06:32:37.036Z,8.77
2023-01-10T06:35:04.759Z,20.77
2023-01-10T06:37:31.947Z,21.23
2023-01-10T06:39:59.219Z,15.95
2023-01-10T06:42:26.462Z,15.48
2023-01-10T06:44:53.743Z,13.23
2023-01-10T06:47:21.553Z,8.13
2023-01-10T06:49:48.684Z,12.25
2023-01-10T06:52:15.848Z,11.23
2023-01-10T06:54:43.062Z,8.73
2023-01-10T06:57:10.501Z,8.38
2023-01-10T06:59:38.048Z,9.60
2023-01-10T07:02:05.375Z,8.60
2023-01-10T07:04:32.754Z,7.47
2023-01-10T07:06:59.898Z,7.72
2023-01-10T07:09:27.010Z,8.32
2023-01-10T07:11:54.207Z,10.25
2023-01-10T07:14:21.406Z,6.50
2023-01-10T07:16:48.550Z,9.60
2023-01-10T07:19:17.629Z,11.25
2023-01-10T07:21:45.337Z,12.45
2023-01-10T07:24:12.653Z,9.95
2023-01-10T07:26:39.855Z,12.00
2023-01-10T07:29:07.102Z,16.42
2023-01-10T07:31:35.086Z,8.90
2023-01-10T07:34:02.282Z,8.35
2023-01-10T07:36:29.522Z,12.98
2023-01-10T07:38:56.793Z,15.88
2023-01-10T07:41:23.921Z,14.05
2023-01-10T07:43:51.193Z,14.02
2023-01-10T07:46:18.396Z,12.48
2023-01-10T07:48:46.995Z,11.23
2023-01-10T07:51:14.280Z,11.57
2023-01-10T07:53:41.483Z,14.48
2023-01-10T07:56:08.736Z,12.05
2023-01-10T07:58:36.152Z,11.30
2023-01-10T08:01:04.679Z,16.85
2023-01-10T08:03:33.281Z,17.13
2023-01-10T08:06:01.406Z,15.45
2023-01-10T08:08:29.001Z,16.50
2023-01-10T08:10:56.577Z,15.05
2023-01-10T08:13:24.376Z,35.70
2023-01-10T08:15:52.742Z,49.20
2023-01-10T08:18:20.545Z,25.48
2023-01-10T08:20:49.543Z,21.80
2023-01-10T08:23:16.833Z,15.32
2023-01-10T08:25:44.225Z,10.30
2023-01-10T08:28:11.407Z,14.95
2023-01-10T08:30:38.906Z,17.45
2023-01-10T08:33:06.973Z,20.65
2023-01-10T08:35:44.668Z,18.80
2023-01-10T08:38:12.400Z,15.35
2023-01-10T08:40:39.792Z,18.10
2023-01-10T08:43:08.271Z,12.95
2023-01-10T08:45:35.976Z,11.93
2023-01-10T08:48:03.460Z,10.60
2023-01-10T08:50:30.991Z,16.83
2023-01-10T08:53:01.886Z,20.52
2023-01-10T08:55:31.199Z,9.52
2023-01-10T08:58:01.615Z,10.95
2023-01-10T09:00:29.582Z,12.23
2023-01-10T09:02:56.849Z,8.05
2023-01-10T09:05:28.174Z,11.93
2023-01-10T09:08:00.274Z,16.33
2023-01-10T09:10:27.948Z,12.50
2023-01-10T09:12:55.280Z,11.88
2023-01-10T09:15:23.267Z,7.53
2023-01-10T09:17:50.530Z,16.08
2023-01-10T09:20:17.739Z,9.88
2023-01-10T09:22:45.007Z,11.35
2023-01-10T09:25:12.315Z,11.77
2023-01-10T09:27:39.513Z,11.70
2023-01-10T09:30:06.915Z,11.05
2023-01-10T09:32:34.090Z,12.68
2023-01-10T09:35:01.263Z,7.90
2023-01-10T09:37:28.395Z,18.45
2023-01-10T09:39:55.630Z,5.65
2023-01-10T09:42:28.347Z,9.32
2023-01-10T09:45:16.003Z,7.73
2023-01-10T09:47:54.356Z,9.73
2023-01-10T09:50:30.695Z,8.38
2023-01-10T09:53:02.191Z,2.75
2023-01-10T09:55:37.702Z,5.30
2023-01-10T09:58:06.201Z,3.40
2023-01-10T10:00:40.098Z,5.00
2023-01-10T10:03:15.715Z,3.97
2023-01-10T10:05:43.608Z,5.47
2023-01-10T10:08:16.391Z,5.85
2023-01-10T10:11:00.746Z,3.28
2023-01-10T10:13:35.342Z,6.95
2023-01-10T10:16:02.880Z,3.78
2023-01-10T10:18:45.396Z,5.90
2023-01-10T10:21:15.545Z,6.75
2023-01-10T10:23:49.550Z,4.82
2023-01-10T10:26:25.825Z,9.05
2023-01-10T10:28:58.304Z,6.70
2023-01-10T10:31:37.783Z,4.03
2023-01-10T10:34:23.883Z,5.47
2023-01-10T10:36:57.054Z,5.82
2023-01-10T10:39:44.514Z,8.55
2023-01-10T10:42:13.434Z,8.98
2023-01-10T10:44:44.202Z,9.38
2023-01-10T10:47:16.451Z,4.75
2023-01-10T10:50:00.360Z,6.85
2023-01-10T10:54:55.680Z,5.38
2023-01-10T10:57:25.530Z,7.15
2023-01-10T10:59:53.042Z,4.20
2023-01-10T11:02:25.099Z,8.90
2023-01-10T11:04:53.821Z,9.35
2023-01-10T11:07:21.570Z,6.68
2023-01-10T11:10:14.792Z,6.93
2023-01-10T11:12:47.877Z,4.03
2023-01-10T11:15:33.876Z,3.08
2023-01-10T11:18:05.968Z,4.18
2023-01-10T11:20:33.376Z,4.10
2023-01-10T11:23:00.551Z,8.57
2023-01-10T11:25:27.659Z,2.65
2023-01-10T11:27:56.138Z,4.63
2023-01-10T11:30:24.453Z,3.83
2023-01-10T11:32:56.903Z,6.15
2023-01-10T11:35:29.140Z,2.03
2023-01-10T11:38:04.913Z,4.43
2023-01-10T11:40:33.327Z,3.90
2023-01-10T11:43:01.039Z,3.53
2023-01-10T11:45:31.932Z,8.35
2023-01-10T11:48:03.611Z,3.70
2023-01-10T11:50:38.586Z,3.53
2023-01-10T11:53:06.822Z,1.98
2023-01-10T11:55:35.657Z,4.13
2023-01-10T11:58:15.077Z,4.20
2023-01-10T12:00:47.441Z,4.43
2023-01-10T12:03:23.460Z,4.97
2023-01-10T12:05:52.147Z,4.35
2023-01-10T12:08:26.871Z,6.85
2023-01-10T12:11:05.502Z,3.03
2023-01-10T12:13:44.644Z,2.70
2023-01-10T12:16:18.200Z,2.60
2023-01-10T12:21:14.292Z,4.00
2023-01-10T12:23:44.487Z,1.65
2023-01-10T12:26:13.432Z,3.90
2023-01-10T12:28:43.424Z,4.47
2023-01-10T12:31:15.220Z,3.17
2023-01-10T12:33:46.876Z,2.25
2023-01-10T12:36:21.441Z,4.25
2023-01-10T12:39:08.084Z,4.50
2023-01-10T12:42:01.738Z,1.02
2023-01-10T12:44:46.170Z,1.50
2023-01-10T12:47:25.731Z,2.50
2023-01-10T12:49:52.961Z,4.57
2023-01-10T12:52:35.162Z,8.73
2023-01-10T12:55:03.383Z,3.63
2023-01-10T12:57:36.849Z,3.78
2023-01-10T13:00:05.808Z,2.08
2023-01-10T13:02:41.574Z,5.57
2023-01-10T13:05:13.953Z,5.65
2023-01-10T13:07:41.407Z,4.07
2023-01-10T13:10:13.748Z,3.95
2023-01-10T13:12:43.007Z,3.75
2023-01-10T13:15:27.966Z,6.50
2023-01-10T13:18:07.107Z,8.95
2023-01-10T13:20:38.835Z,6.78
2023-01-10T13:23:14.292Z,4.22
2023-01-10T13:25:41.623Z,4.63
2023-01-10T13:28:21.035Z,4.07
2023-01-10T13:30:55.392Z,2.92
2023-01-10T13:33:22.641Z,2.72
2023-01-10T13:35:50.024Z,7.55
2023-01-10T13:38:19.509Z,6.03
2023-01-10T13:41:05.474Z,5.60
2023-01-10T13:43:40.557Z,5.95
2023-01-10T13:46:27.998Z,4.97
2023-01-10T13:49:00.083Z,5.90
2023-01-10T13:51:27.874Z,4.65
2023-01-10T13:53:57.693Z,9.50
2023-01-10T13:56:29.374Z,12.13
2023-01-10T13:59:15.221Z,3.50
2023-01-10T14:02:02.270Z,8.60
2023-01-10T14:04:34.388Z,4.38
2023-01-10T14:07:06.904Z,8.68
2023-01-10T14:09:37.016Z,4.97
2023-01-10T14:12:18.926Z,3.83
2023-01-10T14:14:51.755Z,6.65
2023-01-10T14:17:32.792Z,5.03
2023-01-10T14:20:06.226Z,7.38
2023-01-10T14:25:01.992Z,9.23
2023-01-10T14:27:38.773Z,6.15
2023-01-10T14:30:06.763Z,6.07
2023-01-10T14:32:35.815Z,9.20
2023-01-10T14:35:04.697Z,7.72
2023-01-10T14:37:40.541Z,7.13
2023-01-10T14:40:16.380Z,13.68
2023-01-10T14:42:44.561Z,11.63
2023-01-10T14:45:26.806Z,6.25
2023-01-10T14:47:54.455Z,6.15
2023-01-10T14:50:27.801Z,8.82
2023-01-10T14:52:56.189Z,12.57
2023-01-10T14:55:23.428Z,10.18
2023-01-10T14:57:55.164Z,11.13
2023-01-10T15:00:26.206Z,8.48
2023-01-10T15:02:53.446Z,10.05
2023-01-10T15:05:20.671Z,6.90
2023-01-10T15:07:47.945Z,12.10
2023-01-10T15:10:24.120Z,10.15
2023-01-10T15:12:55.758Z,6.43
2023-01-10T15:15:49.379Z,7.07
2023-01-10T15:18:31.383Z,10.52
2023-01-10T15:20:58.823Z,5.07
2023-01-10T15:23:29.091Z,8.73
2023-01-10T15:26:01.435Z,8.18
2023-01-10T15:28:32.043Z,11.52
2023-01-10T15:30:59.979Z,5.47
2023-01-10T15:33:29.437Z,10.80
2023-01-10T15:35:58.331Z,8.77
2023-01-10T15:38:30.279Z,9.27
2023-01-10T15:40:59.403Z,10.82
2023-01-10T15:43:29.153Z,9.98
2023-01-10T15:45:57.374Z,10.75
2023-01-10T15:48:33.901Z,8.40
2023-01-10T15:51:06.685Z,8.93
2023-01-10T15:53:52.785Z,7.95
2023-01-10T15:56:21.574Z,13.40
2023-01-10T15:58:49.012Z,12.93
2023-01-10T16:01:17.257Z,12.48
2023-01-10T16:03:52.916Z,7.88
2023-01-10T16:06:22.041Z,9.90
2023-01-10T16:08:50.765Z,9.60
2023-01-10T16:11:40.024Z,10.57
2023-01-10T16:14:09.810Z,9.13
2023-01-10T16:16:37.039Z,14.50
2023-01-10T16:19:04.248Z,7.07
2023-01-10T16:21:40.424Z,10.70
2023-01-10T16:24:10.814Z,8.20
2023-01-10T16:26:38.074Z,10.85
2023-01-10T16:29:05.266Z,8.35
2023-01-10T16:31:32.455Z,9.07
2023-01-10T16:33:59.669Z,9.02
2023-01-10T16:36:26.773Z,8.98
2023-01-10T16:38:54.004Z,8.32
2023-01-10T16:41:39.829Z,10.50
2023-01-10T16:44:06.979Z,9.82
2023-01-10T16:46:34.191Z,7.68
2023-01-10T16:49:01.397Z,12.90
2023-01-10T16:51:32.330Z,7.50
2023-01-10T16:53:59.489Z,10.32
2023-01-10T16:56:28.167Z,6.75
2023-01-10T16:58:55.892Z,11.60
2023-01-10T17:01:24.699Z,8.75
2023-01-10T17:03:52.673Z,11.80
2023-01-10T17:06:20.088Z,9.50
2023-01-10T17:08:47.594Z,13.05
2023-01-10T17:11:21.843Z,10.50
2023-01-10T17:13:49.441Z,13.27
2023-01-10T17:16:19.454Z,12.25
2023-01-10T17:18:48.246Z,11.00
2023-01-10T17:21:17.002Z,7.80
2023-01-10T17:23:44.570Z,8.10
2023-01-10T17:26:12.900Z,7.53
2023-01-10T17:28:41.184Z,10.45
2023-01-10T17:31:08.812Z,10.35
2023-01-10T17:33:36.041Z,10.65
2023-01-10T17:36:03.240Z,11.98
2023-01-10T17:38:30.693Z,14.48
2023-01-10T17:41:02.006Z,11.35
2023-01-10T17:43:29.385Z,11.05
2023-01-10T17:45:58.943Z,9.45
2023-01-10T17:48:26.499Z,13.60
2023-01-10T17:50:58.112Z,11.18
2023-01-10T17:53:25.527Z,11.40
2023-01-10T17:55:52.840Z,7.30
2023-01-10T17:58:20.354Z,12.43
2023-01-10T18:00:48.879Z,10.13
2023-01-10T18:03:16.510Z,10.77
2023-01-10T18:05:51.212Z,12.50
2023-01-10T18:08:18.541Z,9.30
2023-01-10T18:10:45.871Z,9.05
2023-01-10T18:13:13.551Z,9.77
2023-01-10T18:15:42.936Z,15.80
2023-01-10T18:18:10.268Z,15.10
2023-01-10T18:20:40.348Z,12.93
2023-01-10T18:23:22.663Z,10.80
2023-01-10T18:25:53.683Z,7.43
2023-01-10T18:28:35.154Z,15.65
2023-01-10T18:31:07.652Z,15.63
2023-01-10T18:33:35.053Z,22.77
2023-01-10T18:36:06.332Z,8.80
2023-01-10T18:38:34.327Z,14.93
2023-01-10T18:41:01.558Z,14.60
2023-01-10T18:43:29.972Z,13.23
2023-01-10T18:46:04.757Z,10.35
2023-01-10T18:48:31.987Z,12.35
2023-01-10T18:50:59.938Z,12.50
2023-01-10T18:53:27.530Z,9.15
2023-01-10T18:55:55.224Z,7.53
2023-01-10T18:58:29.441Z,7.60
2023-01-10T19:00:56.614Z,7.63
2023-01-10T19:03:23.865Z,15.35
2023-01-10T19:05:51.106Z,14.50
2023-01-10T19:08:18.350Z,13.20
2023-01-10T19:11:11.379Z,18.55
2023-01-10T19:13:34.516Z,12.98
2023-01-10T19:16:12.446Z,11.63
2023-01-10T19:18:40.072Z,8.77
2023-01-10T19:21:13.297Z,14.70
2023-01-10T19:23:40.499Z,14.13
2023-01-10T19:26:07.784Z,14.75
2023-01-10T19:28:35.125Z,13.55
2023-01-10T19:31:04.993Z,9.80
2023-01-10T19:33:34.327Z,12.20
2023-01-10T19:36:05.498Z,10.57
2023-01-10T19:38:32.654Z,13.20
2023-01-10T19:40:59.820Z,11.57
2023-01-10T19:43:26.994Z,12.52
2023-01-10T19:45:54.587Z,12.90
2023-01-10T19:48:22.441Z,15.02
2023-01-10T19:50:49.793Z,10.93
2023-01-10T19:53:17.173Z,7.35
2023-01-10T19:55:44.408Z,11.20
2023-01-10T19:58:11.543Z,10.63
2023-01-10T20:00:38.756Z,12.48
2023-01-10T20:03:07.828Z,7.65
2023-01-10T20:05:36.333Z,15.15
2023-01-10T20:08:04.943Z,9.18
2023-01-10T20:10:32.207Z,8.23
2023-01-10T20:12:59.371Z,11.57
2023-01-10T20:15:26.757Z,9.43
2023-01-10T20:17:53.919Z,7.60
2023-01-10T20:20:21.187Z,6.80
2023-01-10T20:22:48.796Z,10.85
2023-01-10T20:25:15.966Z,9.82
2023-01-10T20:27:43.219Z,10.80
2023-01-10T20:30:14.055Z,12.27
2023-01-10T20:32:41.209Z,11.38
2023-01-10T20:35:08.614Z,10.40
2023-01-10T20:37:35.762Z,11.15
2023-01-10T20:40:03.437Z,7.68
2023-01-10T20:42:32.527Z,9.75
2023-01-10T20:44:59.690Z,10.05
2023-01-10T20:47:26.940Z,11.80
2023-01-10T20:49:54.079Z,13.65
2023-01-10T20:52:21.191Z,10.63
2023-01-10T20:54:48.322Z,17.45
2023-01-10T20:57:15.581Z,7.95
2023-01-10T20:59:42.720Z,7.60
2023-01-10T21:02:11.539Z,8.75
2023-01-10T21:04:39.882Z,8.13
2023-01-10T21:07:07.200Z,7.20
2023-01-10T21:09:34.473Z,6.25
2023-01-10T21:12:13.769Z,5.90
2023-01-10T21:14:44.960Z,5.90
2023-01-10T21:17:12.618Z,9.10
2023-01-10T21:19:42.078Z,7.38
2023-01-10T21:22:10.005Z,8.20
2023-01-10T21:24:37.415Z,11.18
2023-01-10T21:27:04.635Z,7.05
2023-01-10T21:29:31.813Z,8.52
2023-01-10T21:31:59.018Z,5.60
2023-01-10T21:34:26.225Z,6.45
2023-01-10T21:36:54.398Z,5.28
2023-01-10T21:39:21.602Z,6.88
2023-01-10T21:42:07.612Z,7.55
2023-01-10T21:44:34.798Z,6.40
2023-01-10T21:47:02.124Z,7.10
2023-01-10T21:49:31.990Z,8.93
2023-01-10T21:51:59.259Z,7.13
2023-01-10T21:54:26.420Z,9.23
2023-01-10T21:56:53.636Z,7.30
2023-01-10T21:59:20.896Z,8.82
2023-01-10T22:01:48.290Z,5.63
2023-01-10T22:04:17.281Z,2.28
2023-01-10T22:06:44.684Z,8.35
2023-01-10T22:09:12.030Z,5.13
2023-01-10T22:11:39.201Z,5.93
2023-01-10T22:14:06.341Z,3.47
2023-01-10T22:16:33.682Z,7.38
2023-01-10T22:19:00.946Z,5.25
2023-01-10T22:21:28.049Z,3.58
2023-01-10T22:23:55.208Z,4.82
2023-01-10T22:26:22.394Z,8.18
2023-01-10T22:28:52.226Z,7.20
2023-01-10T22:31:19.431Z,6.82
2023-01-10T22:33:46.709Z,4.47
2023-01-10T22:36:15.435Z,4.90
2023-01-10T22:38:42.726Z,6.32
2023-01-10T22:41:11.445Z,5.13
2023-01-10T22:43:38.656Z,8.95
2023-01-10T22:46:08.596Z,2.80
2023-01-10T22:48:36.469Z,4.65
2023-01-10T22:51:05.382Z,5.20
2023-01-10T22:53:32.874Z,7.53
2023-01-10T22:56:00.694Z,4.38
2023-01-10T22:58:28.351Z,3.28
2023-01-10T23:00:55.525Z,5.43
2023-01-10T23:03:25.476Z,3.50
2023-01-10T23:05:56.509Z,5.47
2023-01-10T23:08:23.944Z,5.03
2023-01-10T23:10:51.116Z,6.45
2023-01-10T23:13:18.298Z,4.55
2023-01-10T23:15:45.423Z,6.07
2023-01-10T23:18:12.576Z,2.78
2023-01-10T23:20:39.680Z,3.58
2023-01-10T23:23:06.812Z,3.83
2023-01-10T23:25:33.950Z,6.70
2023-01-10T23:28:01.128Z,8.60
2023-01-10T23:30:28.934Z,4.35
2023-01-10T23:32:56.236Z,7.20
2023-01-10T23:35:23.386Z,4.40
2023-01-10T23:37:50.612Z,4.60
2023-01-10T23:40:17.789Z,3.55
2023-01-10T23:42:44.945Z,7.80
2023-01-10T23:45:12.161Z,5.10
2023-01-10T23:47:39.424Z,4.53
2023-01-10T23:50:06.757Z,4.00
2023-01-10T23:52:34.072Z,6.00
2023-01-10T23:55:01.196Z,4.97
2023-01-10T23:57:28.382Z,8.68
2023-01-10T23:59:55.562Z,2.03
